sensor_id;sensor_type;location;lat;lon;timestamp;P1;durP1;ratioP1;P2;durP2;ratioP2
41219;SDS011;26951;47.338;9.196;2023-06-24T00:00:37;5.80;;;5.00;;
41219;SDS011;26951;47.338;9.196;2023-06-24T00:03:21;5.15;;;4.30;;
41219;SDS011;26951;47.338;9.196;2023-06-24T00:06:06;6.90;;;5.25;;
41219;SDS011;26951;47.338;9.196;2023-06-24T00:08:50;6.85;;;5.93;;
41219;SDS011;26951;47.338;9.196;2023-06-24T00:11:35;5.60;;;4.63;;
41219;SDS011;26951;47.338;9.196;2023-06-24T00:14:19;5.20;;;4.70;;
41219;SDS011;26951;47.338;9.196;2023-06-24T00:17:04;5.30;;;4.65;;
41219;SDS011;26951;47.338;9.196;2023-06-24T00:19:50;8.30;;;4.85;;
41219;SDS011;26951;47.338;9.196;2023-06-24T00:22:38;6.03;;;4.82;;
41219;SDS011;26951;47.338;9.196;2023-06-24T00:25:27;5.47;;;4.53;;
41219;SDS011;26951;47.338;9.196;2023-06-24T00:28:12;5.55;;;4.40;;
41219;SDS011;26951;47.338;9.196;2023-06-24T00:30:56;5.55;;;4.82;;
41219;SDS011;26951;47.338;9.196;2023-06-24T00:33:40;5.53;;;4.47;;
41219;SDS011;26951;47.338;9.196;2023-06-24T00:36:24;5.20;;;4.43;;
41219;SDS011;26951;47.338;9.196;2023-06-24T00:39:10;6.22;;;4.88;;
41219;SDS011;26951;47.338;9.196;2023-06-24T00:41:54;8.55;;;5.65;;
41219;SDS011;26951;47.338;9.196;2023-06-24T00:44:38;5.22;;;4.60;;
41219;SDS011;26951;47.338;9.196;2023-06-24T00:47:31;6.03;;;5.43;;
41219;SDS011;26951;47.338;9.196;2023-06-24T00:50:15;5.68;;;5.18;;
41219;SDS011;26951;47.338;9.196;2023-06-24T00:53:00;6.15;;;4.85;;
41219;SDS011;26951;47.338;9.196;2023-06-24T00:55:51;5.50;;;4.40;;
41219;SDS011;26951;47.338;9.196;2023-06-24T00:58:38;5.78;;;4.50;;
41219;SDS011;26951;47.338;9.196;2023-06-24T01:06:34;5.75;;;4.78;;
41219;SDS011;26951;47.338;9.196;2023-06-24T01:09:19;6.38;;;5.20;;
41219;SDS011;26951;47.338;9.196;2023-06-24T01:12:04;5.95;;;5.18;;
41219;SDS011;26951;47.338;9.196;2023-06-24T01:14:50;5.93;;;4.55;;
41219;SDS011;26951;47.338;9.196;2023-06-24T01:17:35;5.15;;;4.47;;
41219;SDS011;26951;47.338;9.196;2023-06-24T01:27:01;5.38;;;4.63;;
41219;SDS011;26951;47.338;9.196;2023-06-24T01:32:53;4.68;;;3.95;;
41219;SDS011;26951;47.338;9.196;2023-06-24T01:35:40;6.22;;;4.88;;
41219;SDS011;26951;47.338;9.196;2023-06-24T01:38:27;6.75;;;4.45;;
41219;SDS011;26951;47.338;9.196;2023-06-24T01:41:21;7.38;;;5.38;;
41219;SDS011;26951;47.338;9.196;2023-06-24T01:44:13;5.45;;;4.63;;
41219;SDS011;26951;47.338;9.196;2023-06-24T01:47:01;5.13;;;4.43;;
41219;SDS011;26951;47.338;9.196;2023-06-24T01:49:48;5.53;;;4.88;;
41219;SDS011;26951;47.338;9.196;2023-06-24T01:52:35;7.47;;;6.15;;
41219;SDS011;26951;47.338;9.196;2023-06-24T01:55:20;6.60;;;5.32;;
41219;SDS011;26951;47.338;9.196;2023-06-24T01:58:07;7.30;;;5.47;;
41219;SDS011;26951;47.338;9.196;2023-06-24T02:00:53;5.53;;;4.82;;
41219;SDS011;26951;47.338;9.196;2023-06-24T02:03:39;6.13;;;5.53;;
41219;SDS011;26951;47.338;9.196;2023-06-24T02:06:25;5.55;;;4.97;;
41219;SDS011;26951;47.338;9.196;2023-06-24T02:09:12;4.97;;;4.47;;
41219;SDS011;26951;47.338;9.196;2023-06-24T02:12:00;7.82;;;5.10;;
41219;SDS011;26951;47.338;9.196;2023-06-24T02:14:47;7.57;;;5.50;;
41219;SDS011;26951;47.338;9.196;2023-06-24T02:17:31;7.65;;;5.38;;
41219;SDS011;26951;47.338;9.196;2023-06-24T02:20:16;7.38;;;5.75;;
41219;SDS011;26951;47.338;9.196;2023-06-24T02:23:02;6.35;;;4.95;;
41219;SDS011;26951;47.338;9.196;2023-06-24T02:25:49;6.85;;;5.50;;
41219;SDS011;26951;47.338;9.196;2023-06-24T02:28:34;6.22;;;5.05;;
41219;SDS011;26951;47.338;9.196;2023-06-24T02:31:19;7.07;;;5.38;;
41219;SDS011;26951;47.338;9.196;2023-06-24T02:34:03;6.28;;;5.40;;
41219;SDS011;26951;47.338;9.196;2023-06-24T02:36:48;5.82;;;5.00;;
41219;SDS011;26951;47.338;9.196;2023-06-24T02:39:32;6.30;;;5.30;;
41219;SDS011;26951;47.338;9.196;2023-06-24T02:42:16;6.68;;;5.65;;
41219;SDS011;26951;47.338;9.196;2023-06-24T02:45:00;5.85;;;5.05;;
41219;SDS011;26951;47.338;9.196;2023-06-24T02:47:46;6.50;;;5.70;;
41219;SDS011;26951;47.338;9.196;2023-06-24T02:50:31;6.97;;;5.20;;
41219;SDS011;26951;47.338;9.196;2023-06-24T02:53:17;5.78;;;5.05;;
41219;SDS011;26951;47.338;9.196;2023-06-24T02:56:02;6.07;;;4.95;;
41219;SDS011;26951;47.338;9.196;2023-06-24T02:58:48;5.72;;;5.22;;
41219;SDS011;26951;47.338;9.196;2023-06-24T03:04:22;6.63;;;4.97;;
41219;SDS011;26951;47.338;9.196;2023-06-24T03:07:06;6.90;;;5.13;;
41219;SDS011;26951;47.338;9.196;2023-06-24T03:09:53;6.68;;;5.00;;
41219;SDS011;26951;47.338;9.196;2023-06-24T03:12:40;6.90;;;5.35;;
41219;SDS011;26951;47.338;9.196;2023-06-24T03:15:24;6.93;;;5.18;;
41219;SDS011;26951;47.338;9.196;2023-06-24T03:18:08;7.88;;;5.00;;
41219;SDS011;26951;47.338;9.196;2023-06-24T03:20:52;5.85;;;5.15;;
41219;SDS011;26951;47.338;9.196;2023-06-24T03:23:36;7.07;;;5.20;;
41219;SDS011;26951;47.338;9.196;2023-06-24T03:26:20;5.43;;;4.93;;
41219;SDS011;26951;47.338;9.196;2023-06-24T03:29:04;8.20;;;5.50;;
41219;SDS011;26951;47.338;9.196;2023-06-24T03:31:50;6.15;;;5.07;;
41219;SDS011;26951;47.338;9.196;2023-06-24T03:34:35;6.10;;;5.10;;
41219;SDS011;26951;47.338;9.196;2023-06-24T03:37:19;6.75;;;4.82;;
41219;SDS011;26951;47.338;9.196;2023-06-24T03:40:03;6.15;;;5.03;;
41219;SDS011;26951;47.338;9.196;2023-06-24T03:42:48;5.63;;;4.68;;
41219;SDS011;26951;47.338;9.196;2023-06-24T03:45:32;5.38;;;4.82;;
41219;SDS011;26951;47.338;9.196;2023-06-24T03:48:17;6.10;;;5.45;;
41219;SDS011;26951;47.338;9.196;2023-06-24T03:51:01;6.03;;;5.43;;
41219;SDS011;26951;47.338;9.196;2023-06-24T03:53:52;5.57;;;4.85;;
41219;SDS011;26951;47.338;9.196;2023-06-24T03:56:36;5.82;;;5.03;;
41219;SDS011;26951;47.338;9.196;2023-06-24T03:59:20;6.35;;;5.63;;
41219;SDS011;26951;47.338;9.196;2023-06-24T04:02:08;7.65;;;5.75;;
41219;SDS011;26951;47.338;9.196;2023-06-24T04:04:52;6.10;;;5.50;;
41219;SDS011;26951;47.338;9.196;2023-06-24T04:07:36;6.47;;;4.83;;
41219;SDS011;26951;47.338;9.196;2023-06-24T04:10:22;5.70;;;4.63;;
41219;SDS011;26951;47.338;9.196;2023-06-24T04:13:06;5.88;;;5.25;;
41219;SDS011;26951;47.338;9.196;2023-06-24T04:15:50;6.10;;;5.15;;
41219;SDS011;26951;47.338;9.196;2023-06-24T04:18:34;5.70;;;4.78;;
41219;SDS011;26951;47.338;9.196;2023-06-24T04:21:20;7.20;;;5.65;;
41219;SDS011;26951;47.338;9.196;2023-06-24T04:24:04;6.57;;;5.55;;
41219;SDS011;26951;47.338;9.196;2023-06-24T04:26:48;6.18;;;5.53;;
41219;SDS011;26951;47.338;9.196;2023-06-24T04:29:32;6.90;;;5.97;;
41219;SDS011;26951;47.338;9.196;2023-06-24T04:32:16;5.80;;;5.20;;
41219;SDS011;26951;47.338;9.196;2023-06-24T04:35:01;6.10;;;5.20;;
41219;SDS011;26951;47.338;9.196;2023-06-24T04:37:45;5.70;;;5.05;;
41219;SDS011;26951;47.338;9.196;2023-06-24T04:40:29;7.13;;;6.13;;
41219;SDS011;26951;47.338;9.196;2023-06-24T04:43:14;6.53;;;5.65;;
41219;SDS011;26951;47.338;9.196;2023-06-24T04:45:58;6.65;;;5.43;;
41219;SDS011;26951;47.338;9.196;2023-06-24T04:48:42;6.13;;;5.13;;
41219;SDS011;26951;47.338;9.196;2023-06-24T04:51:26;5.80;;;4.95;;
41219;SDS011;26951;47.338;9.196;2023-06-24T04:54:15;5.88;;;5.05;;
41219;SDS011;26951;47.338;9.196;2023-06-24T04:56:59;5.57;;;4.70;;
41219;SDS011;26951;47.338;9.196;2023-06-24T04:59:44;6.75;;;5.13;;
41219;SDS011;26951;47.338;9.196;2023-06-24T05:02:28;5.65;;;5.05;;
41219;SDS011;26951;47.338;9.196;2023-06-24T05:05:13;8.37;;;6.03;;
41219;SDS011;26951;47.338;9.196;2023-06-24T05:07:57;5.70;;;5.05;;
41219;SDS011;26951;47.338;9.196;2023-06-24T05:10:41;6.25;;;5.00;;
41219;SDS011;26951;47.338;9.196;2023-06-24T05:13:27;5.75;;;5.07;;
41219;SDS011;26951;47.338;9.196;2023-06-24T05:16:11;6.50;;;4.85;;
41219;SDS011;26951;47.338;9.196;2023-06-24T05:18:55;5.03;;;4.50;;
41219;SDS011;26951;47.338;9.196;2023-06-24T05:21:40;6.63;;;5.93;;
41219;SDS011;26951;47.338;9.196;2023-06-24T05:24:24;7.63;;;4.88;;
41219;SDS011;26951;47.338;9.196;2023-06-24T05:27:08;6.97;;;5.13;;
41219;SDS011;26951;47.338;9.196;2023-06-24T05:29:52;6.38;;;5.35;;
41219;SDS011;26951;47.338;9.196;2023-06-24T05:32:36;6.82;;;5.90;;
41219;SDS011;26951;47.338;9.196;2023-06-24T05:35:20;6.63;;;5.93;;
41219;SDS011;26951;47.338;9.196;2023-06-24T05:38:04;7.82;;;6.15;;
41219;SDS011;26951;47.338;9.196;2023-06-24T05:40:49;7.93;;;5.97;;
41219;SDS011;26951;47.338;9.196;2023-06-24T05:43:33;6.78;;;5.72;;
41219;SDS011;26951;47.338;9.196;2023-06-24T05:46:17;5.43;;;4.93;;
41219;SDS011;26951;47.338;9.196;2023-06-24T05:49:01;7.80;;;6.13;;
41219;SDS011;26951;47.338;9.196;2023-06-24T05:51:45;7.43;;;6.23;;
41219;SDS011;26951;47.338;9.196;2023-06-24T05:54:30;6.78;;;6.00;;
41219;SDS011;26951;47.338;9.196;2023-06-24T05:57:14;6.43;;;5.82;;
41219;SDS011;26951;47.338;9.196;2023-06-24T05:59:58;6.65;;;5.35;;
41219;SDS011;26951;47.338;9.196;2023-06-24T06:02:42;7.55;;;5.50;;
41219;SDS011;26951;47.338;9.196;2023-06-24T06:05:26;7.78;;;5.30;;
41219;SDS011;26951;47.338;9.196;2023-06-24T06:08:10;6.90;;;5.80;;
41219;SDS011;26951;47.338;9.196;2023-06-24T06:10:54;6.50;;;5.60;;
41219;SDS011;26951;47.338;9.196;2023-06-24T06:13:38;6.25;;;5.07;;
41219;SDS011;26951;47.338;9.196;2023-06-24T06:16:22;6.80;;;5.30;;
41219;SDS011;26951;47.338;9.196;2023-06-24T06:19:07;6.23;;;5.60;;
41219;SDS011;26951;47.338;9.196;2023-06-24T06:21:51;7.00;;;5.32;;
41219;SDS011;26951;47.338;9.196;2023-06-24T06:24:35;5.77;;;5.27;;
41219;SDS011;26951;47.338;9.196;2023-06-24T06:27:19;7.03;;;6.05;;
41219;SDS011;26951;47.338;9.196;2023-06-24T06:30:04;6.93;;;6.10;;
41219;SDS011;26951;47.338;9.196;2023-06-24T06:32:49;5.57;;;5.05;;
41219;SDS011;26951;47.338;9.196;2023-06-24T06:38:40;5.78;;;4.72;;
41219;SDS011;26951;47.338;9.196;2023-06-24T06:41:24;5.65;;;5.07;;
41219;SDS011;26951;47.338;9.196;2023-06-24T06:44:12;6.05;;;5.20;;
41219;SDS011;26951;47.338;9.196;2023-06-24T06:47:07;9.20;;;6.63;;
41219;SDS011;26951;47.338;9.196;2023-06-24T06:49:52;6.53;;;4.90;;
41219;SDS011;26951;47.338;9.196;2023-06-24T06:52:36;8.65;;;5.80;;
41219;SDS011;26951;47.338;9.196;2023-06-24T06:55:21;5.35;;;4.85;;
41219;SDS011;26951;47.338;9.196;2023-06-24T06:58:06;5.47;;;4.93;;
41219;SDS011;26951;47.338;9.196;2023-06-24T07:00:50;5.68;;;5.13;;
41219;SDS011;26951;47.338;9.196;2023-06-24T07:03:34;6.70;;;5.65;;
41219;SDS011;26951;47.338;9.196;2023-06-24T07:06:18;5.90;;;5.32;;
41219;SDS011;26951;47.338;9.196;2023-06-24T07:09:03;5.68;;;4.45;;
41219;SDS011;26951;47.338;9.196;2023-06-24T07:11:47;5.38;;;4.88;;
41219;SDS011;26951;47.338;9.196;2023-06-24T07:14:31;4.75;;;4.35;;
41219;SDS011;26951;47.338;9.196;2023-06-24T07:17:15;5.07;;;4.57;;
41219;SDS011;26951;47.338;9.196;2023-06-24T07:19:59;6.43;;;5.07;;
41219;SDS011;26951;47.338;9.196;2023-06-24T07:22:43;6.28;;;5.47;;
41219;SDS011;26951;47.338;9.196;2023-06-24T07:25:27;6.67;;;5.10;;
41219;SDS011;26951;47.338;9.196;2023-06-24T07:28:12;5.43;;;4.80;;
41219;SDS011;26951;47.338;9.196;2023-06-24T07:30:56;7.30;;;5.47;;
41219;SDS011;26951;47.338;9.196;2023-06-24T07:33:40;5.10;;;4.60;;
41219;SDS011;26951;47.338;9.196;2023-06-24T07:36:24;6.57;;;4.88;;
41219;SDS011;26951;47.338;9.196;2023-06-24T07:39:08;4.90;;;4.43;;
41219;SDS011;26951;47.338;9.196;2023-06-24T07:41:52;5.80;;;4.37;;
41219;SDS011;26951;47.338;9.196;2023-06-24T07:44:37;5.30;;;4.80;;
41219;SDS011;26951;47.338;9.196;2023-06-24T07:47:23;5.13;;;4.60;;
41219;SDS011;26951;47.338;9.196;2023-06-24T07:50:07;4.93;;;4.40;;
41219;SDS011;26951;47.338;9.196;2023-06-24T07:52:54;6.90;;;4.60;;
41219;SDS011;26951;47.338;9.196;2023-06-24T07:55:38;5.25;;;4.43;;
41219;SDS011;26951;47.338;9.196;2023-06-24T07:58:22;5.20;;;4.47;;
41219;SDS011;26951;47.338;9.196;2023-06-24T08:01:06;4.47;;;4.07;;
41219;SDS011;26951;47.338;9.196;2023-06-24T08:03:51;4.37;;;3.77;;
41219;SDS011;26951;47.338;9.196;2023-06-24T08:06:35;5.43;;;4.38;;
41219;SDS011;26951;47.338;9.196;2023-06-24T08:09:19;4.80;;;4.40;;
41219;SDS011;26951;47.338;9.196;2023-06-24T08:12:04;4.80;;;4.22;;
41219;SDS011;26951;47.338;9.196;2023-06-24T08:14:49;4.35;;;3.95;;
41219;SDS011;26951;47.338;9.196;2023-06-24T08:17:33;5.10;;;3.87;;
41219;SDS011;26951;47.338;9.196;2023-06-24T08:20:17;5.60;;;3.90;;
41219;SDS011;26951;47.338;9.196;2023-06-24T08:23:01;5.25;;;4.13;;
41219;SDS011;26951;47.338;9.196;2023-06-24T08:25:45;4.47;;;4.07;;
41219;SDS011;26951;47.338;9.196;2023-06-24T08:28:29;4.65;;;4.25;;
41219;SDS011;26951;47.338;9.196;2023-06-24T08:31:16;4.63;;;4.23;;
41219;SDS011;26951;47.338;9.196;2023-06-24T08:34:00;5.13;;;4.63;;
41219;SDS011;26951;47.338;9.196;2023-06-24T08:36:46;4.40;;;3.97;;
41219;SDS011;26951;47.338;9.196;2023-06-24T08:39:30;4.97;;;4.28;;
41219;SDS011;26951;47.338;9.196;2023-06-24T08:42:14;4.82;;;4.03;;
41219;SDS011;26951;47.338;9.196;2023-06-24T08:44:59;5.45;;;3.92;;
41219;SDS011;26951;47.338;9.196;2023-06-24T08:47:43;4.32;;;3.67;;
41219;SDS011;26951;47.338;9.196;2023-06-24T08:53:16;4.03;;;3.50;;
41219;SDS011;26951;47.338;9.196;2023-06-24T08:56:04;4.95;;;4.00;;
41219;SDS011;26951;47.338;9.196;2023-06-24T08:58:48;5.47;;;3.80;;
41219;SDS011;26951;47.338;9.196;2023-06-24T09:01:32;5.00;;;3.78;;
41219;SDS011;26951;47.338;9.196;2023-06-24T09:04:17;4.32;;;3.92;;
41219;SDS011;26951;47.338;9.196;2023-06-24T09:07:01;4.22;;;3.75;;
41219;SDS011;26951;47.338;9.196;2023-06-24T09:09:46;4.82;;;3.20;;
41219;SDS011;26951;47.338;9.196;2023-06-24T09:12:34;3.80;;;2.87;;
41219;SDS011;26951;47.338;9.196;2023-06-24T09:15:19;2.60;;;2.40;;
41219;SDS011;26951;47.338;9.196;2023-06-24T09:18:04;3.65;;;2.30;;
41219;SDS011;26951;47.338;9.196;2023-06-24T09:23:39;3.05;;;2.75;;
41219;SDS011;26951;47.338;9.196;2023-06-24T09:26:27;3.42;;;3.10;;
41219;SDS011;26951;47.338;9.196;2023-06-24T09:29:18;4.78;;;3.40;;
41219;SDS011;26951;47.338;9.196;2023-06-24T09:32:06;3.72;;;2.85;;
41219;SDS011;26951;47.338;9.196;2023-06-24T09:34:51;2.95;;;2.47;;
41219;SDS011;26951;47.338;9.196;2023-06-24T09:37:35;3.17;;;2.78;;
41219;SDS011;26951;47.338;9.196;2023-06-24T09:40:19;3.30;;;3.00;;
41219;SDS011;26951;47.338;9.196;2023-06-24T09:45:48;3.50;;;3.20;;
41219;SDS011;26951;47.338;9.196;2023-06-24T09:51:17;3.47;;;3.17;;
41219;SDS011;26951;47.338;9.196;2023-06-24T09:54:03;4.30;;;3.90;;
41219;SDS011;26951;47.338;9.196;2023-06-24T09:56:52;5.07;;;4.57;;
41219;SDS011;26951;47.338;9.196;2023-06-24T09:59:38;5.47;;;4.57;;
41219;SDS011;26951;47.338;9.196;2023-06-24T10:02:23;4.57;;;4.07;;
41219;SDS011;26951;47.338;9.196;2023-06-24T10:05:08;5.45;;;4.85;;
41219;SDS011;26951;47.338;9.196;2023-06-24T10:10:37;6.38;;;4.75;;
41219;SDS011;26951;47.338;9.196;2023-06-24T10:13:21;5.00;;;4.50;;
41219;SDS011;26951;47.338;9.196;2023-06-24T10:16:05;4.43;;;3.88;;
41219;SDS011;26951;47.338;9.196;2023-06-24T10:18:49;4.00;;;3.60;;
41219;SDS011;26951;47.338;9.196;2023-06-24T10:21:47;4.28;;;3.85;;
41219;SDS011;26951;47.338;9.196;2023-06-24T10:24:35;4.15;;;3.83;;
41219;SDS011;26951;47.338;9.196;2023-06-24T10:27:23;4.38;;;3.97;;
41219;SDS011;26951;47.338;9.196;2023-06-24T10:30:07;4.47;;;4.07;;
41219;SDS011;26951;47.338;9.196;2023-06-24T10:32:52;7.20;;;3.88;;
41219;SDS011;26951;47.338;9.196;2023-06-24T10:38:25;3.85;;;3.50;;
41219;SDS011;26951;47.338;9.196;2023-06-24T10:41:15;4.10;;;3.60;;
41219;SDS011;26951;47.338;9.196;2023-06-24T10:43:59;3.92;;;3.53;;
41219;SDS011;26951;47.338;9.196;2023-06-24T10:46:58;3.60;;;3.30;;
41219;SDS011;26951;47.338;9.196;2023-06-24T10:49:43;4.93;;;3.63;;
41219;SDS011;26951;47.338;9.196;2023-06-24T10:52:27;4.22;;;3.83;;
41219;SDS011;26951;47.338;9.196;2023-06-24T10:55:15;4.97;;;3.43;;
41219;SDS011;26951;47.338;9.196;2023-06-24T10:58:10;3.92;;;3.60;;
41219;SDS011;26951;47.338;9.196;2023-06-24T11:01:06;4.22;;;3.83;;
41219;SDS011;26951;47.338;9.196;2023-06-24T11:03:51;3.78;;;3.40;;
41219;SDS011;26951;47.338;9.196;2023-06-24T11:06:36;4.40;;;3.90;;
41219;SDS011;26951;47.338;9.196;2023-06-24T11:12:12;5.00;;;4.00;;
41219;SDS011;26951;47.338;9.196;2023-06-24T11:15:03;3.97;;;3.60;;
41219;SDS011;26951;47.338;9.196;2023-06-24T11:17:50;4.40;;;4.00;;
41219;SDS011;26951;47.338;9.196;2023-06-24T11:20:35;4.43;;;3.80;;
41219;SDS011;26951;47.338;9.196;2023-06-24T11:23:20;3.85;;;3.45;;
41219;SDS011;26951;47.338;9.196;2023-06-24T11:26:04;4.20;;;3.50;;
41219;SDS011;26951;47.338;9.196;2023-06-24T11:28:49;3.43;;;3.13;;
41219;SDS011;26951;47.338;9.196;2023-06-24T11:31:33;4.57;;;3.50;;
41219;SDS011;26951;47.338;9.196;2023-06-24T11:34:18;3.85;;;3.45;;
41219;SDS011;26951;47.338;9.196;2023-06-24T11:37:09;3.83;;;3.53;;
41219;SDS011;26951;47.338;9.196;2023-06-24T11:40:04;4.07;;;3.22;;
41219;SDS011;26951;47.338;9.196;2023-06-24T11:45:34;3.42;;;3.13;;
41219;SDS011;26951;47.338;9.196;2023-06-24T11:48:20;3.40;;;3.10;;
41219;SDS011;26951;47.338;9.196;2023-06-24T11:51:04;3.13;;;2.83;;
41219;SDS011;26951;47.338;9.196;2023-06-24T11:54:00;3.70;;;3.08;;
41219;SDS011;26951;47.338;9.196;2023-06-24T11:56:50;3.92;;;3.53;;
41219;SDS011;26951;47.338;9.196;2023-06-24T11:59:35;4.00;;;3.50;;
41219;SDS011;26951;47.338;9.196;2023-06-24T12:02:19;3.92;;;3.42;;
41219;SDS011;26951;47.338;9.196;2023-06-24T12:05:03;3.25;;;2.85;;
41219;SDS011;26951;47.338;9.196;2023-06-24T12:07:48;4.20;;;3.17;;
41219;SDS011;26951;47.338;9.196;2023-06-24T12:10:33;4.35;;;3.47;;
41219;SDS011;26951;47.338;9.196;2023-06-24T12:13:18;3.15;;;2.80;;
41219;SDS011;26951;47.338;9.196;2023-06-24T12:16:02;3.75;;;3.30;;
41219;SDS011;26951;47.338;9.196;2023-06-24T12:18:47;3.70;;;3.25;;
41219;SDS011;26951;47.338;9.196;2023-06-24T12:21:31;3.35;;;3.05;;
41219;SDS011;26951;47.338;9.196;2023-06-24T12:24:16;3.67;;;3.28;;
41219;SDS011;26951;47.338;9.196;2023-06-24T12:27:00;3.87;;;3.43;;
41219;SDS011;26951;47.338;9.196;2023-06-24T12:29:44;4.55;;;3.15;;
41219;SDS011;26951;47.338;9.196;2023-06-24T12:32:28;3.60;;;3.22;;
41219;SDS011;26951;47.338;9.196;2023-06-24T12:35:12;3.73;;;3.33;;
41219;SDS011;26951;47.338;9.196;2023-06-24T12:37:57;3.58;;;3.28;;
41219;SDS011;26951;47.338;9.196;2023-06-24T12:40:41;3.40;;;3.10;;
41219;SDS011;26951;47.338;9.196;2023-06-24T12:43:25;3.50;;;3.13;;
41219;SDS011;26951;47.338;9.196;2023-06-24T12:46:10;3.90;;;3.40;;
41219;SDS011;26951;47.338;9.196;2023-06-24T12:48:54;3.53;;;3.22;;
41219;SDS011;26951;47.338;9.196;2023-06-24T12:51:38;4.32;;;3.15;;
41219;SDS011;26951;47.338;9.196;2023-06-24T12:54:22;5.30;;;3.83;;
41219;SDS011;26951;47.338;9.196;2023-06-24T12:57:06;3.90;;;3.47;;
41219;SDS011;26951;47.338;9.196;2023-06-24T12:59:50;4.20;;;3.80;;
41219;SDS011;26951;47.338;9.196;2023-06-24T13:02:35;4.03;;;3.63;;
41219;SDS011;26951;47.338;9.196;2023-06-24T13:08:04;3.92;;;3.58;;
41219;SDS011;26951;47.338;9.196;2023-06-24T13:10:50;3.20;;;2.90;;
41219;SDS011;26951;47.338;9.196;2023-06-24T13:13:34;4.18;;;3.35;;
41219;SDS011;26951;47.338;9.196;2023-06-24T13:16:18;3.47;;;3.17;;
41219;SDS011;26951;47.338;9.196;2023-06-24T13:19:02;3.83;;;3.35;;
41219;SDS011;26951;47.338;9.196;2023-06-24T13:21:46;3.83;;;3.40;;
41219;SDS011;26951;47.338;9.196;2023-06-24T13:24:31;3.10;;;2.80;;
41219;SDS011;26951;47.338;9.196;2023-06-24T13:27:15;3.13;;;2.83;;
41219;SDS011;26951;47.338;9.196;2023-06-24T13:30:00;3.83;;;3.42;;
41219;SDS011;26951;47.338;9.196;2023-06-24T13:32:46;3.78;;;3.22;;
41219;SDS011;26951;47.338;9.196;2023-06-24T13:35:30;3.50;;;3.20;;
41219;SDS011;26951;47.338;9.196;2023-06-24T13:38:14;3.55;;;3.25;;
41219;SDS011;26951;47.338;9.196;2023-06-24T13:40:59;4.28;;;3.40;;
41219;SDS011;26951;47.338;9.196;2023-06-24T13:43:43;4.00;;;2.85;;
41219;SDS011;26951;47.338;9.196;2023-06-24T13:46:27;4.30;;;3.80;;
41219;SDS011;26951;47.338;9.196;2023-06-24T13:49:12;3.63;;;3.30;;
41219;SDS011;26951;47.338;9.196;2023-06-24T13:51:59;3.80;;;3.50;;
41219;SDS011;26951;47.338;9.196;2023-06-24T13:54:44;3.58;;;3.28;;
41219;SDS011;26951;47.338;9.196;2023-06-24T13:57:30;4.85;;;3.55;;
41219;SDS011;26951;47.338;9.196;2023-06-24T14:00:14;3.65;;;3.35;;
41219;SDS011;26951;47.338;9.196;2023-06-24T14:02:58;4.43;;;3.35;;
41219;SDS011;26951;47.338;9.196;2023-06-24T14:05:43;3.53;;;3.22;;
41219;SDS011;26951;47.338;9.196;2023-06-24T14:08:27;4.05;;;3.67;;
41219;SDS011;26951;47.338;9.196;2023-06-24T14:11:11;4.25;;;3.80;;
41219;SDS011;26951;47.338;9.196;2023-06-24T14:13:55;4.93;;;3.50;;
41219;SDS011;26951;47.338;9.196;2023-06-24T14:16:39;3.40;;;2.88;;
41219;SDS011;26951;47.338;9.196;2023-06-24T14:19:24;3.50;;;3.05;;
41219;SDS011;26951;47.338;9.196;2023-06-24T14:22:08;4.00;;;3.60;;
41219;SDS011;26951;47.338;9.196;2023-06-24T14:24:59;4.57;;;3.17;;
41219;SDS011;26951;47.338;9.196;2023-06-24T14:27:44;6.53;;;3.80;;
41219;SDS011;26951;47.338;9.196;2023-06-24T14:30:28;3.23;;;2.93;;
41219;SDS011;26951;47.338;9.196;2023-06-24T14:33:12;5.25;;;3.25;;
41219;SDS011;26951;47.338;9.196;2023-06-24T14:35:56;3.95;;;3.10;;
41219;SDS011;26951;47.338;9.196;2023-06-24T14:38:41;3.78;;;3.38;;
41219;SDS011;26951;47.338;9.196;2023-06-24T14:41:26;3.67;;;3.38;;
41219;SDS011;26951;47.338;9.196;2023-06-24T14:44:11;4.18;;;3.13;;
41219;SDS011;26951;47.338;9.196;2023-06-24T14:46:55;3.53;;;3.20;;
41219;SDS011;26951;47.338;9.196;2023-06-24T14:49:39;3.10;;;2.80;;
41219;SDS011;26951;47.338;9.196;2023-06-24T14:52:23;3.40;;;3.10;;
41219;SDS011;26951;47.338;9.196;2023-06-24T14:55:07;3.40;;;3.10;;
41219;SDS011;26951;47.338;9.196;2023-06-24T14:57:52;5.22;;;2.97;;
41219;SDS011;26951;47.338;9.196;2023-06-24T15:00:36;4.10;;;3.30;;
41219;SDS011;26951;47.338;9.196;2023-06-24T15:03:20;3.65;;;3.13;;
41219;SDS011;26951;47.338;9.196;2023-06-24T15:06:04;3.80;;;3.35;;
41219;SDS011;26951;47.338;9.196;2023-06-24T15:08:48;4.17;;;3.77;;
41219;SDS011;26951;47.338;9.196;2023-06-24T15:11:33;4.90;;;3.63;;
41219;SDS011;26951;47.338;9.196;2023-06-24T15:14:17;3.80;;;3.40;;
41219;SDS011;26951;47.338;9.196;2023-06-24T15:17:01;3.63;;;3.33;;
41219;SDS011;26951;47.338;9.196;2023-06-24T15:19:46;3.22;;;2.92;;
41219;SDS011;26951;47.338;9.196;2023-06-24T15:22:31;3.90;;;3.50;;
41219;SDS011;26951;47.338;9.196;2023-06-24T15:25:15;5.27;;;3.13;;
41219;SDS011;26951;47.338;9.196;2023-06-24T15:28:00;3.50;;;3.20;;
41219;SDS011;26951;47.338;9.196;2023-06-24T15:30:44;3.80;;;3.40;;
41219;SDS011;26951;47.338;9.196;2023-06-24T15:33:28;3.80;;;3.47;;
41219;SDS011;26951;47.338;9.196;2023-06-24T15:36:12;4.25;;;3.85;;
41219;SDS011;26951;47.338;9.196;2023-06-24T15:38:56;4.45;;;3.70;;
41219;SDS011;26951;47.338;9.196;2023-06-24T15:41:41;4.30;;;3.05;;
41219;SDS011;26951;47.338;9.196;2023-06-24T15:44:33;3.83;;;3.22;;
41219;SDS011;26951;47.338;9.196;2023-06-24T15:47:17;3.40;;;3.10;;
41219;SDS011;26951;47.338;9.196;2023-06-24T15:50:02;3.53;;;3.03;;
41219;SDS011;26951;47.338;9.196;2023-06-24T15:52:46;3.60;;;3.30;;
41219;SDS011;26951;47.338;9.196;2023-06-24T15:55:30;3.83;;;3.10;;
41219;SDS011;26951;47.338;9.196;2023-06-24T15:58:14;3.33;;;3.03;;
41219;SDS011;26951;47.338;9.196;2023-06-24T16:00:58;3.97;;;3.53;;
41219;SDS011;26951;47.338;9.196;2023-06-24T16:03:43;3.80;;;3.45;;
41219;SDS011;26951;47.338;9.196;2023-06-24T16:06:27;5.05;;;3.20;;
41219;SDS011;26951;47.338;9.196;2023-06-24T16:09:11;3.50;;;3.20;;
41219;SDS011;26951;47.338;9.196;2023-06-24T16:11:55;4.57;;;3.17;;
41219;SDS011;26951;47.338;9.196;2023-06-24T16:14:39;4.10;;;3.70;;
41219;SDS011;26951;47.338;9.196;2023-06-24T16:17:23;3.55;;;3.22;;
41219;SDS011;26951;47.338;9.196;2023-06-24T16:20:07;4.05;;;3.55;;
41219;SDS011;26951;47.338;9.196;2023-06-24T16:22:52;4.32;;;3.40;;
41219;SDS011;26951;47.338;9.196;2023-06-24T16:25:36;3.72;;;3.25;;
41219;SDS011;26951;47.338;9.196;2023-06-24T16:28:20;4.33;;;3.70;;
41219;SDS011;26951;47.338;9.196;2023-06-24T16:31:07;4.03;;;3.63;;
41219;SDS011;26951;47.338;9.196;2023-06-24T16:36:51;5.40;;;3.13;;
41219;SDS011;26951;47.338;9.196;2023-06-24T16:39:35;3.95;;;3.55;;
41219;SDS011;26951;47.338;9.196;2023-06-24T16:42:19;5.55;;;4.00;;
41219;SDS011;26951;47.338;9.196;2023-06-24T16:45:04;3.88;;;3.42;;
41219;SDS011;26951;47.338;9.196;2023-06-24T16:50:33;3.22;;;2.92;;
41219;SDS011;26951;47.338;9.196;2023-06-24T16:53:18;4.40;;;3.47;;
41219;SDS011;26951;47.338;9.196;2023-06-24T16:56:02;5.25;;;3.88;;
41219;SDS011;26951;47.338;9.196;2023-06-24T16:58:46;3.95;;;3.47;;
41219;SDS011;26951;47.338;9.196;2023-06-24T17:01:30;3.58;;;3.28;;
41219;SDS011;26951;47.338;9.196;2023-06-24T17:04:16;4.50;;;3.58;;
41219;SDS011;26951;47.338;9.196;2023-06-24T17:07:00;4.65;;;4.18;;
41219;SDS011;26951;47.338;9.196;2023-06-24T17:09:44;4.32;;;3.50;;
41219;SDS011;26951;47.338;9.196;2023-06-24T17:12:29;3.90;;;3.37;;
41219;SDS011;26951;47.338;9.196;2023-06-24T17:15:13;3.55;;;3.22;;
41219;SDS011;26951;47.338;9.196;2023-06-24T17:17:57;3.92;;;3.05;;
41219;SDS011;26951;47.338;9.196;2023-06-24T17:20:42;5.55;;;3.65;;
41219;SDS011;26951;47.338;9.196;2023-06-24T17:23:26;3.65;;;3.35;;
41219;SDS011;26951;47.338;9.196;2023-06-24T17:26:12;3.70;;;3.40;;